Time;durP1;ratioP1;P1;durP2;ratioP2;P2;SDS_P1;SDS_P2;PMS_P1;PMS_P2;Temp;Humidity;BMP_temperature;BMP_pressure;BME280_temperature;BME280_humidity;BME280_pressure;Samples;Min_cycle;Max_cycle;Signal;HPM_P1;HPM_P2
2023/08/25 00:00:55;;;;;;;2.92;1.70;;;22.40;99.90;;;;;;4984466;28;20039;-73
2023/08/25 00:03:20;;;;;;;4.00;1.50;;;22.30;99.90;;;;;;4983797;28;20039;-72
2023/08/25 00:05:51;;;;;;;4.20;1.80;;;22.30;99.90;;;;;;4983819;28;20050;-73
2023/08/25 00:08:17;;;;;;;4.97;1.50;;;22.20;99.90;;;;;;4983974;28;20073;-72
2023/08/25 00:10:43;;;;;;;2.95;1.60;;;22.30;99.90;;;;;;4983576;28;20328;-74
2023/08/25 00:13:08;;;;;;;3.40;1.40;;;22.30;99.90;;;;;;4983659;28;20054;-75
2023/08/25 00:15:34;;;;;;;3.67;1.40;;;22.30;99.90;;;;;;4983344;28;20331;-73
2023/08/25 00:18:00;;;;;;;4.68;1.65;;;22.40;99.90;;;;;;4985421;28;20065;-73
2023/08/25 00:20:26;;;;;;;5.38;2.08;;;22.50;99.90;;;;;;4986968;28;20042;-72
2023/08/25 00:22:52;;;;;;;3.05;1.60;;;22.50;99.90;;;;;;4987429;28;20317;-72
2023/08/25 00:25:18;;;;;;;3.75;1.63;;;22.50;99.90;;;;;;4987555;28;20073;-72
2023/08/25 00:27:43;;;;;;;3.42;1.60;;;22.50;99.90;;;;;;4986786;28;20053;-74
2023/08/25 00:30:10;;;;;;;2.42;1.55;;;22.60;99.90;;;;;;4987334;28;20085;-73
2023/08/25 08:07:00;;;;;;;5.03;2.72;;;20.70;99.90;;;;;;5227660;23;19953;-77
2023/08/25 08:09:26;;;;;;;6.22;3.13;;;20.60;99.90;;;;;;4991874;28;20026;-76
2023/08/25 08:11:52;;;;;;;6.07;3.03;;;20.60;99.90;;;;;;4983183;28;20081;-77
2023/08/25 08:14:18;;;;;;;6.45;2.75;;;20.60;99.90;;;;;;4984660;28;20051;-77
2023/08/25 08:16:43;;;;;;;5.18;2.83;;;20.60;99.90;;;;;;4984050;28;20037;-77
2023/08/25 08:19:10;;;;;;;4.25;2.40;;;20.60;99.90;;;;;;4984078;28;20264;-76
2023/08/25 08:21:50;;;;;;;5.18;2.50;;;20.60;99.90;;;;;;4979515;28;20026;-77
2023/08/25 08:24:16;;;;;;;4.95;2.10;;;20.50;99.90;;;;;;4964239;29;20102;-76
2023/08/25 08:26:51;;;;;;;4.63;2.40;;;20.50;99.90;;;;;;4964467;29;20051;-78
2023/08/25 08:29:29;;;;;;;6.68;2.40;;;20.50;99.90;;;;;;4964320;29;20337;-77
2023/08/25 08:32:07;;;;;;;6.25;2.10;;;20.50;99.90;;;;;;4964098;29;20336;-76
2023/08/25 08:34:36;;;;;;;4.65;2.50;;;20.40;99.90;;;;;;4973258;28;20034;-78
2023/08/25 08:37:06;;;;;;;5.22;2.60;;;20.30;99.90;;;;;;4996297;28;20035;-79
2023/08/25 08:39:40;;;;;;;5.53;2.42;;;20.30;99.90;;;;;;4972168;28;20114;-76
2023/08/25 08:42:09;;;;;;;5.20;2.38;;;20.30;99.90;;;;;;5007067;28;20026;-77
2023/08/25 08:44:51;;;;;;;6.22;3.30;;;20.40;99.90;;;;;;4989197;28;20030;-80
2023/08/25 08:47:29;;;;;;;8.23;3.75;;;20.50;99.90;;;;;;4994066;28;20034;-78
2023/08/25 08:50:12;;;;;;;9.17;3.10;;;20.70;99.90;;;;;;4993001;28;20027;-77
2023/08/25 08:52:38;;;;;;;7.35;3.17;;;20.70;99.90;;;;;;4967190;28;20026;-75
2023/08/25 08:55:09;;;;;;;7.82;3.72;;;20.80;99.90;;;;;;4950540;29;20035;-78
2023/08/25 08:57:34;;;;;;;6.35;3.65;;;20.80;99.90;;;;;;4950378;29;20273;-79
2023/08/25 09:00:03;;;;;;;6.78;3.40;;;20.80;99.90;;;;;;4949583;29;20063;-72
2023/08/25 09:02:32;;;;;;;8.38;3.55;;;20.80;99.90;;;;;;4967800;29;20030;-79
2023/08/25 09:05:12;;;;;;;4.82;3.13;;;20.80;99.90;;;;;;4955484;28;20027;-78
2023/08/25 09:07:43;;;;;;;5.22;3.20;;;20.70;99.90;;;;;;4987590;28;20026;-77
2023/08/25 09:10:10;;;;;;;11.52;3.45;;;20.90;99.90;;;;;;4987444;28;20041;-79
2023/08/25 09:13:13;;;;;;;5.93;2.47;;;21.00;99.90;;;;;;4972380;28;20062;-78
2023/08/25 09:15:39;;;;;;;4.47;2.65;;;21.00;99.90;;;;;;4950471;29;20046;-80
2023/08/25 09:18:54;;;;;;;7.10;2.88;;;21.00;99.90;;;;;;4949851;29;20329;-80
2023/08/25 09:21:59;;;;;;;5.57;2.30;;;21.10;99.90;;;;;;4951584;29;20039;-80
2023/08/25 09:24:46;;;;;;;4.40;2.20;;;21.20;99.90;;;;;;4950143;29;20027;-82
2023/08/25 09:31:22;;;;;;;5.13;2.53;;;21.70;99.90;;;;;;4926751;29;20044;-81
2023/08/25 09:34:08;;;;;;;4.07;2.55;;;22.00;99.90;;;;;;4947839;29;20077;-81
2023/08/25 09:37:09;;;;;;;5.90;2.53;;;22.50;99.90;;;;;;4966555;29;20023;-80
2023/08/25 09:40:14;;;;;;;3.97;2.45;;;22.90;99.90;;;;;;4966885;29;20035;-80
2023/08/25 09:42:43;;;;;;;6.80;3.20;;;23.10;99.90;;;;;;4931036;29;20048;-81
2023/08/25 09:45:33;;;;;;;5.40;2.30;;;23.30;99.90;;;;;;4935009;29;20039;-81
2023/08/25 09:48:18;;;;;;;6.22;2.47;;;23.50;99.90;;;;;;4962821;28;20085;-81
2023/08/25 09:50:51;;;;;;;9.05;2.17;;;23.60;99.90;;;;;;4985018;28;20033;-81
2023/08/25 09:53:56;;;;;;;4.35;2.20;;;23.90;99.90;;;;;;4971856;28;20081;-79
2023/08/25 09:56:26;;;;;;;4.03;1.98;;;24.30;99.90;;;;;;4969431;28;20031;-77
2023/08/25 09:58:56;;;;;;;5.03;2.20;;;24.40;99.90;;;;;;4968971;28;20034;-80
2023/08/25 10:01:22;;;;;;;6.80;1.98;;;24.70;99.90;;;;;;4969126;28;20027;-79
2023/08/25 10:03:53;;;;;;;4.32;2.08;;;25.20;99.90;;;;;;4952344;28;20030;-80
2023/08/25 10:06:22;;;;;;;3.42;1.77;;;25.30;99.70;;;;;;4985280;28;20101;-78
2023/08/25 10:08:58;;;;;;;4.45;1.80;;;25.30;99.00;;;;;;4952138;28;20031;-79
2023/08/25 10:11:29;;;;;;;3.35;1.50;;;25.00;99.40;;;;;;4968504;28;20293;-78
2023/08/25 10:14:16;;;;;;;3.58;1.80;;;24.90;99.10;;;;;;4977695;28;20321;-81
2023/08/25 10:16:52;;;;;;;2.92;1.80;;;24.60;99.90;;;;;;4966215;29;20027;-78
2023/08/25 10:19:28;;;;;;;4.20;1.73;;;24.60;99.90;;;;;;4966091;29;20046;-81
2023/08/25 10:21:55;;;;;;;3.33;1.95;;;24.60;99.90;;;;;;4966171;29;20063;-79
2023/08/25 10:24:23;;;;;;;3.90;1.75;;;24.60;99.90;;;;;;4948490;29;20031;-78
2023/08/25 10:27:01;;;;;;;2.65;1.60;;;24.60;99.40;;;;;;4966538;29;20027;-81
2023/08/25 10:29:33;;;;;;;3.13;1.58;;;24.70;98.60;;;;;;4949003;29;20038;-79
2023/08/25 10:32:05;;;;;;;4.15;1.98;;;24.70;98.70;;;;;;4966272;29;20042;-77
2023/08/25 10:34:37;;;;;;;3.75;1.60;;;24.50;99.40;;;;;;4954380;29;20056;-79
2023/08/25 10:37:10;;;;;;;5.50;1.60;;;24.40;99.10;;;;;;4945432;29;20036;-81
2023/08/25 10:39:52;;;;;;;5.53;2.15;;;24.30;98.80;;;;;;4945772;29;20082;-79
2023/08/25 10:42:30;;;;;;;3.75;1.50;;;24.00;99.40;;;;;;4962014;29;20038;-79
2023/08/25 10:45:14;;;;;;;4.03;1.98;;;24.00;99.90;;;;;;4964968;29;20028;-79
2023/08/25 10:47:52;;;;;;;3.88;1.55;;;24.10;99.90;;;;;;4965558;28;20027;-78
2023/08/25 10:50:22;;;;;;;3.55;1.77;;;24.10;99.60;;;;;;4963998;29;20035;-76
2023/08/25 10:52:52;;;;;;;3.30;1.75;;;24.20;99.70;;;;;;4948341;29;20077;-78
2023/08/25 10:55:52;;;;;;;4.13;1.90;;;24.10;99.90;;;;;;4965253;29;20131;-75
2023/08/25 10:58:22;;;;;;;4.20;1.80;;;24.20;98.60;;;;;;4965104;29;20075;-78
2023/08/25 11:01:01;;;;;;;3.90;1.70;;;24.10;99.10;;;;;;4964376;28;20035;-83
2023/08/25 11:04:05;;;;;;;4.88;1.98;;;24.30;98.40;;;;;;4948621;29;20031;-78
2023/08/25 11:06:39;;;;;;;6.05;1.85;;;24.40;98.10;;;;;;4965338;28;20070;-80
2023/08/25 11:09:13;;;;;;;4.45;1.75;;;24.50;97.80;;;;;;4963951;29;20046;-80
2023/08/25 11:11:48;;;;;;;3.70;1.70;;;24.60;97.10;;;;;;4948706;29;20098;-79
2023/08/25 11:14:14;;;;;;;4.05;2.10;;;24.70;97.00;;;;;;4953268;29;20055;-78
2023/08/25 11:16:41;;;;;;;4.53;1.88;;;24.70;96.80;;;;;;4945972;29;20039;-77
2023/08/25 11:19:11;;;;;;;3.53;1.90;;;24.70;97.30;;;;;;4944858;29;20039;-77
2023/08/25 11:21:37;;;;;;;3.13;1.65;;;24.90;97.30;;;;;;4950152;29;20031;-76
2023/08/25 11:24:03;;;;;;;3.83;1.88;;;24.90;96.70;;;;;;4953823;29;20044;-74
2023/08/25 11:26:30;;;;;;;4.15;2.20;;;24.90;97.10;;;;;;4957548;29;20031;-76
2023/08/25 11:28:56;;;;;;;4.35;2.53;;;24.90;97.00;;;;;;4964957;28;20133;-76
2023/08/25 11:31:23;;;;;;;4.07;1.90;;;25.00;96.90;;;;;;4947370;29;20437;-75
2023/08/25 11:33:54;;;;;;;3.67;1.75;;;25.00;97.00;;;;;;4945355;29;20061;-75
2023/08/25 11:36:23;;;;;;;4.78;2.00;;;25.20;96.60;;;;;;4945161;29;20036;-76
2023/08/25 11:38:50;;;;;;;3.70;2.10;;;25.50;96.60;;;;;;4953556;29;20262;-77
2023/08/25 11:41:21;;;;;;;4.03;1.77;;;25.30;96.60;;;;;;4961298;29;20063;-75
2023/08/25 11:43:48;;;;;;;4.25;2.28;;;25.40;96.50;;;;;;4945754;29;20028;-76
2023/08/25 11:46:17;;;;;;;4.30;2.30;;;25.30;96.30;;;;;;4944031;29;20040;-76
2023/08/25 11:48:50;;;;;;;4.40;2.20;;;25.40;96.30;;;;;;4944586;29;20032;-74
2023/08/25 11:51:17;;;;;;;4.20;2.40;;;25.60;96.20;;;;;;4955835;28;20039;-75
2023/08/25 11:53:46;;;;;;;4.88;2.47;;;25.60;95.90;;;;;;4964376;29;20074;-80
2023/08/25 11:56:16;;;;;;;4.72;2.78;;;25.80;95.80;;;;;;4953296;29;20040;-74
2023/08/25 11:58:45;;;;;;;5.03;2.10;;;25.80;95.70;;;;;;4945693;29;20091;-75
2023/08/25 12:01:12;;;;;;;3.45;2.10;;;25.90;95.60;;;;;;4944931;29;20107;-76
2023/08/25 12:03:39;;;;;;;4.05;2.50;;;26.00;95.20;;;;;;4945422;29;20027;-76
2023/08/25 12:06:10;;;;;;;4.50;2.25;;;26.10;95.10;;;;;;4944943;29;20106;-77
2023/08/25 12:08:39;;;;;;;6.65;2.35;;;26.40;94.70;;;;;;4961799;29;20106;-76
2023/08/25 12:11:07;;;;;;;5.32;2.50;;;26.70;94.90;;;;;;4963006;29;20098;-77
2023/08/25 12:13:38;;;;;;;2.80;2.20;;;26.60;94.20;;;;;;4965804;28;20065;-77
2023/08/25 12:16:04;;;;;;;4.53;2.33;;;26.20;94.80;;;;;;4968813;28;20039;-75
2023/08/25 12:18:37;;;;;;;4.30;2.22;;;26.00;95.20;;;;;;4968943;29;20112;-77
2023/08/25 12:21:06;;;;;;;4.57;2.65;;;25.90;95.30;;;;;;4951314;29;20058;-76
2023/08/25 12:23:38;;;;;;;;;;;25.90;95.40;;;;;;4968326;29;20047;-75
2023/08/25 12:26:06;;;;;;;3.88;2.47;;;25.80;95.40;;;;;;4968721;29;19906;-76
2023/08/25 12:28:32;;;;;;;5.45;2.75;;;25.90;95.00;;;;;;4972141;29;20065;-76
2023/08/25 12:31:00;;;;;;;3.35;2.22;;;25.80;95.10;;;;;;4954396;29;20217;-75
2023/08/25 12:33:26;;;;;;;7.43;2.60;;;25.80;95.10;;;;;;4950408;29;20062;-74
2023/08/25 12:35:51;;;;;;;6.18;2.47;;;25.80;94.90;;;;;;4952703;29;20110;-74
2023/08/25 12:38:17;;;;;;;3.88;2.33;;;25.80;94.70;;;;;;4918171;29;20064;-75
2023/08/25 12:40:43;;;;;;;4.07;2.70;;;25.90;94.30;;;;;;4947148;29;20039;-76
2023/08/25 12:43:09;;;;;;;6.50;3.15;;;25.90;93.60;;;;;;4967728;29;20039;-75
2023/08/25 12:45:35;;;;;;;3.55;2.47;;;26.00;93.30;;;;;;4966218;29;20347;-75
2023/08/25 12:48:00;;;;;;;3.58;2.40;;;26.00;93.40;;;;;;4965886;29;20039;-74
2023/08/25 12:50:27;;;;;;;7.03;3.08;;;26.10;93.10;;;;;;4965592;29;20352;-75
2023/08/25 12:52:53;;;;;;;3.92;2.60;;;26.20;92.80;;;;;;4965830;28;20067;-75
2023/08/25 12:55:19;;;;;;;4.38;2.70;;;26.40;92.50;;;;;;4965284;29;20313;-73
2023/08/25 12:57:45;;;;;;;6.60;2.80;;;26.70;92.10;;;;;;4966002;29;20195;-74
2023/08/25 13:00:12;;;;;;;5.00;2.70;;;27.10;91.40;;;;;;4966901;28;20221;-75
2023/08/25 13:02:40;;;;;;;3.95;2.53;;;27.30;91.10;;;;;;4967605;29;20030;-75
2023/08/25 13:05:09;;;;;;;4.82;2.67;;;27.60;90.50;;;;;;4967788;29;20095;-75
2023/08/25 13:07:39;;;;;;;3.22;2.40;;;27.70;90.40;;;;;;4966373;29;20039;-76
2023/08/25 13:10:06;;;;;;;4.22;2.58;;;28.00;89.70;;;;;;4967565;28;20045;-76
2023/08/25 13:12:32;;;;;;;5.50;2.53;;;28.10;89.20;;;;;;4950115;29;20043;-73
2023/08/25 13:14:59;;;;;;;6.90;2.53;;;28.40;87.60;;;;;;4967147;29;20085;-74
2023/08/25 13:17:26;;;;;;;5.22;2.63;;;28.20;87.40;;;;;;4966691;29;20317;-73
2023/08/25 13:19:52;;;;;;;4.55;2.83;;;28.30;87.40;;;;;;4967154;29;20094;-74
2023/08/25 13:22:17;;;;;;;5.28;2.72;;;28.20;88.50;;;;;;4966816;29;20032;-74
2023/08/25 13:24:43;;;;;;;4.70;2.50;;;28.20;87.10;;;;;;4966890;28;20051;-72
2023/08/25 13:27:09;;;;;;;5.07;2.50;;;28.10;87.50;;;;;;4966740;29;20035;-74
2023/08/25 13:29:35;;;;;;;4.47;2.55;;;28.30;87.20;;;;;;4965394;29;20042;-74
2023/08/25 13:32:00;;;;;;;4.78;3.00;;;28.70;86.00;;;;;;4967387;29;20043;-75
2023/08/25 13:34:26;;;;;;;5.47;2.63;;;28.90;85.00;;;;;;4966582;29;20115;-75
2023/08/25 13:36:52;;;;;;;6.68;2.63;;;29.30;84.50;;;;;;4967299;29;20035;-75
2023/08/25 13:39:17;;;;;;;3.92;2.42;;;29.50;83.20;;;;;;4966219;29;20035;-75
2023/08/25 13:41:43;;;;;;;5.30;2.55;;;29.80;82.40;;;;;;4961248;28;20034;-75
2023/08/25 13:44:09;;;;;;;5.65;2.50;;;30.30;80.40;;;;;;4947255;29;20035;-75
2023/08/25 13:46:35;;;;;;;4.80;2.28;;;30.50;79.30;;;;;;4949403;29;20368;-76
2023/08/25 13:49:01;;;;;;;4.40;2.00;;;31.10;78.80;;;;;;4966729;29;20034;-74
2023/08/25 13:51:28;;;;;;;5.05;2.47;;;31.70;77.40;;;;;;4966094;29;20106;-75
2023/08/25 13:53:53;;;;;;;5.00;2.55;;;32.30;74.70;;;;;;4966276;29;20094;-74
2023/08/25 13:56:19;;;;;;;2.90;2.00;;;32.30;73.70;;;;;;4966000;28;20046;-76
2023/08/25 13:58:48;;;;;;;4.60;2.35;;;32.40;73.40;;;;;;4965346;29;20241;-76
2023/08/25 14:01:15;;;;;;;3.53;2.17;;;31.90;75.10;;;;;;4965869;29;20039;-75
2023/08/25 14:03:40;;;;;;;4.63;2.22;;;31.70;74.80;;;;;;4966398;29;20268;-75
2023/08/25 14:06:06;;;;;;;4.45;2.28;;;31.80;74.90;;;;;;4966581;29;20066;-76
2023/08/25 14:08:32;;;;;;;7.88;2.60;;;32.10;72.70;;;;;;4966108;29;20046;-75
2023/08/25 14:10:58;;;;;;;4.07;2.50;;;32.40;72.30;;;;;;4966382;29;20039;-74
2023/08/25 14:13:23;;;;;;;4.40;2.60;;;32.30;72.50;;;;;;4966124;29;20031;-75
2023/08/25 14:15:50;;;;;;;3.83;2.38;;;32.20;72.10;;;;;;4966180;29;20030;-76
2023/08/25 14:18:15;;;;;;;6.00;2.45;;;32.00;73.00;;;;;;4966009;29;20119;-77
2023/08/25 14:20:41;;;;;;;4.45;2.88;;;31.60;73.50;;;;;;4966305;29;20042;-77
2023/08/25 14:23:07;;;;;;;6.43;2.58;;;32.00;73.50;;;;;;4965847;29;20035;-77
2023/08/25 14:25:32;;;;;;;3.90;2.33;;;31.90;72.50;;;;;;4964784;29;20090;-75
2023/08/25 14:28:04;;;;;;;4.78;2.40;;;31.90;73.20;;;;;;4965003;29;20032;-75
2023/08/25 14:30:32;;;;;;;5.75;2.20;;;32.00;73.90;;;;;;4960375;29;20038;-74
2023/08/25 14:32:58;;;;;;;4.88;3.15;;;32.30;72.00;;;;;;4966222;29;20035;-75
2023/08/25 14:35:23;;;;;;;3.90;2.42;;;32.30;71.40;;;;;;4965514;28;20076;-73
2023/08/25 14:37:49;;;;;;;5.38;3.03;;;32.60;70.90;;;;;;4965281;29;20027;-74
2023/08/25 14:40:15;;;;;;;4.20;2.20;;;32.40;70.30;;;;;;4965318;29;20078;-75
2023/08/25 14:42:41;;;;;;;5.75;2.90;;;32.40;69.50;;;;;;4965776;29;20110;-74
2023/08/25 14:45:07;;;;;;;5.35;2.40;;;32.10;70.40;;;;;;4966049;29;20046;-74
2023/08/25 14:47:33;;;;;;;4.43;2.58;;;31.80;70.80;;;;;;4964208;29;20221;-75
2023/08/25 14:50:00;;;;;;;5.47;2.63;;;31.20;71.20;;;;;;4959292;29;20142;-76
2023/08/25 14:52:26;;;;;;;4.15;2.53;;;30.80;72.60;;;;;;4946376;29;20039;-75
2023/08/25 14:54:52;;;;;;;3.80;2.28;;;30.50;73.60;;;;;;4946607;29;20042;-76
2023/08/25 14:57:18;;;;;;;5.47;2.60;;;30.40;74.90;;;;;;4945744;29;20031;-75
2023/08/25 14:59:44;;;;;;;5.88;2.55;;;30.50;74.10;;;;;;4925458;29;20048;-74
2023/08/25 15:02:10;;;;;;;4.00;2.80;;;30.60;73.90;;;;;;4932425;29;20044;-75
2023/08/25 15:04:37;;;;;;;5.30;2.35;;;30.70;73.40;;;;;;4943627;29;20173;-74
2023/08/25 15:07:03;;;;;;;4.15;2.47;;;30.80;74.30;;;;;;4928259;29;20062;-75
2023/08/25 15:09:28;;;;;;;4.65;2.40;;;31.30;72.90;;;;;;4944087;29;20337;-74
2023/08/25 15:11:54;;;;;;;4.85;2.60;;;31.40;72.90;;;;;;4944329;29;20107;-76
2023/08/25 15:14:20;;;;;;;5.78;2.63;;;31.30;72.30;;;;;;4927869;29;20114;-74
2023/08/25 15:16:45;;;;;;;4.78;2.63;;;31.30;72.20;;;;;;4944243;29;20337;-75
2023/08/25 15:19:11;;;;;;;4.35;2.50;;;31.20;72.80;;;;;;4944151;29;20055;-74
2023/08/25 15:21:37;;;;;;;4.03;2.25;;;31.40;72.70;;;;;;4943864;29;20095;-76
2023/08/25 15:24:03;;;;;;;4.43;2.88;;;32.20;72.40;;;;;;4943964;29;20031;-74
2023/08/25 15:26:28;;;;;;;4.35;2.63;;;32.50;70.30;;;;;;4943642;29;20040;-74
2023/08/25 15:28:55;;;;;;;5.50;2.30;;;32.80;69.00;;;;;;4943992;29;20036;-75
2023/08/25 15:31:20;;;;;;;5.70;3.22;;;32.90;69.90;;;;;;4959742;29;20097;-77
2023/08/25 15:33:46;;;;;;;4.70;2.70;;;34.00;71.30;;;;;;4964777;29;20297;-74
2023/08/25 15:36:12;;;;;;;4.45;2.60;;;34.80;69.20;;;;;;4964185;29;20031;-75
2023/08/25 15:38:38;;;;;;;3.65;2.25;;;35.70;68.80;;;;;;4964870;29;20256;-75
2023/08/25 15:41:10;;;;;;;5.07;3.00;;;36.20;68.60;;;;;;4965182;29;20030;-74
2023/08/25 15:43:36;;;;;;;5.30;2.67;;;35.80;69.00;;;;;;4964441;29;20035;-75
2023/08/25 15:46:03;;;;;;;4.95;2.47;;;35.00;69.70;;;;;;4965097;29;20035;-75
2023/08/25 15:48:29;;;;;;;6.10;2.85;;;34.20;71.30;;;;;;4957916;28;20032;-76
2023/08/25 15:50:55;;;;;;;5.43;2.58;;;33.60;72.70;;;;;;4945627;29;20047;-75
2023/08/25 15:53:22;;;;;;;5.45;2.60;;;33.30;73.40;;;;;;4945327;29;20222;-74
2023/08/25 15:55:49;;;;;;;4.18;2.58;;;33.10;73.80;;;;;;4945870;29;20089;-75
2023/08/25 15:58:16;;;;;;;5.20;2.53;;;33.30;74.30;;;;;;4945706;29;20039;-75
2023/08/25 16:00:42;;;;;;;3.75;2.30;;;34.20;72.50;;;;;;4949574;29;20220;-76
2023/08/25 16:03:08;;;;;;;4.60;2.58;;;35.90;69.00;;;;;;4964960;29;20062;-76
2023/08/25 16:05:34;;;;;;;4.30;2.05;;;37.40;65.90;;;;;;4963981;29;20032;-74
2023/08/25 16:07:59;;;;;;;3.92;2.25;;;38.00;64.30;;;;;;4964542;29;20039;-74
2023/08/25 16:10:25;;;;;;;4.15;2.20;;;38.90;62.90;;;;;;4964381;29;20272;-75
2023/08/25 16:12:56;;;;;;;5.55;2.00;;;39.90;61.50;;;;;;4963750;29;20086;-75
2023/08/25 16:15:28;;;;;;;19.23;4.65;;;39.60;61.00;;;;;;4945010;29;20254;-74
2023/08/25 16:17:58;;;;;;;28.13;6.45;;;40.00;60.40;;;;;;4945363;29;20043;-75
2023/08/25 16:20:29;;;;;;;16.05;3.50;;;40.50;59.70;;;;;;4944887;29;20044;-75
2023/08/25 16:22:54;;;;;;;6.03;2.42;;;39.70;60.30;;;;;;4945392;29;20047;-75
2023/08/25 16:25:21;;;;;;;5.75;2.80;;;38.70;61.60;;;;;;4944869;29;20309;-75
2023/08/25 16:27:46;;;;;;;4.82;2.25;;;38.90;62.10;;;;;;4945461;29;20283;-75
2023/08/25 16:30:12;;;;;;;4.55;2.47;;;39.80;61.50;;;;;;4945628;29;20124;-75
2023/08/25 16:32:41;;;;;;;4.07;2.05;;;40.40;59.30;;;;;;4944897;29;20254;-77
2023/08/25 16:35:09;;;;;;;4.32;2.40;;;40.70;58.70;;;;;;4945122;29;20039;-76
2023/08/25 16:37:34;;;;;;;6.13;2.35;;;40.90;58.00;;;;;;4944777;29;20042;-76
2023/08/25 16:40:00;;;;;;;7.03;2.33;;;40.60;58.20;;;;;;4945255;29;20043;-76
2023/08/25 16:42:26;;;;;;;6.13;2.53;;;40.90;58.20;;;;;;4945020;29;20055;-75
2023/08/25 16:44:52;;;;;;;13.23;3.45;;;40.40;58.20;;;;;;4945501;29;20027;-75
2023/08/25 16:47:17;;;;;;;8.50;3.25;;;39.70;58.70;;;;;;4945694;29;20201;-75
2023/08/25 16:49:43;;;;;;;9.70;3.00;;;38.40;61.10;;;;;;4944466;29;20027;-75
2023/08/25 16:52:09;;;;;;;13.32;3.13;;;38.00;61.90;;;;;;4945571;29;20047;-75
2023/08/25 16:54:34;;;;;;;4.65;2.50;;;38.10;62.10;;;;;;4944762;29;20031;-75
2023/08/25 16:57:00;;;;;;;4.07;2.38;;;38.20;62.00;;;;;;4945357;29;20035;-76
2023/08/25 16:59:25;;;;;;;4.25;2.10;;;38.30;61.20;;;;;;4945317;29;20046;-77
2023/08/25 17:01:51;;;;;;;4.03;2.30;;;37.30;62.00;;;;;;4965065;29;20074;-76
2023/08/25 17:04:17;;;;;;;4.65;2.67;;;36.30;64.10;;;;;;4950761;29;20046;-76
2023/08/25 17:06:43;;;;;;;5.35;3.05;;;36.10;64.60;;;;;;4965958;28;20085;-76
2023/08/25 17:09:08;;;;;;;6.05;2.60;;;35.90;64.70;;;;;;4966670;29;20050;-75
2023/08/25 17:11:34;;;;;;;4.43;2.45;;;35.20;65.90;;;;;;4967333;29;20031;-76
2023/08/25 17:14:00;;;;;;;5.05;2.35;;;34.50;67.10;;;;;;4967571;29;20035;-75
2023/08/25 17:16:26;;;;;;;4.15;2.40;;;33.70;69.00;;;;;;4967282;29;20361;-77
2023/08/25 17:18:52;;;;;;;4.50;2.60;;;32.80;70.60;;;;;;4967206;29;20077;-75
2023/08/25 17:21:20;;;;;;;3.92;2.40;;;32.30;72.80;;;;;;4967440;29;20050;-77
2023/08/25 17:23:46;;;;;;;4.05;2.60;;;31.70;73.60;;;;;;4950110;29;20031;-78
2023/08/25 17:26:11;;;;;;;4.05;2.50;;;31.40;74.70;;;;;;4967791;29;20035;-77
2023/08/25 17:28:37;;;;;;;4.53;2.60;;;31.00;75.60;;;;;;4967109;29;20309;-76
2023/08/25 17:31:07;;;;;;;4.32;2.80;;;30.60;77.50;;;;;;4950681;29;20062;-76
2023/08/25 17:33:34;;;;;;;6.00;2.78;;;30.30;77.90;;;;;;4969581;29;20037;-78
2023/08/25 17:36:10;;;;;;;6.15;3.08;;;30.00;78.60;;;;;;4971769;28;20103;-78
2023/08/25 17:38:45;;;;;;;4.55;2.65;;;29.70;79.70;;;;;;4980559;28;20112;-78
2023/08/25 17:41:18;;;;;;;7.55;2.58;;;29.40;80.60;;;;;;5024094;23;20074;-78
2023/08/25 17:43:44;;;;;;;4.80;2.50;;;29.30;81.50;;;;;;4980645;28;20074;-77
2023/08/25 17:46:11;;;;;;;5.13;2.90;;;29.30;81.90;;;;;;4989775;28;20043;-77
2023/08/25 17:48:43;;;;;;;5.57;2.75;;;29.20;81.70;;;;;;4969012;28;20081;-78
2023/08/25 17:51:09;;;;;;;4.43;2.90;;;29.10;83.40;;;;;;4968553;28;20035;-78
2023/08/25 17:53:34;;;;;;;3.40;2.45;;;29.10;82.70;;;;;;4985554;28;20102;-77
2023/08/25 17:56:01;;;;;;;4.28;2.88;;;29.00;84.00;;;;;;4953013;28;20054;-76
2023/08/25 17:58:27;;;;;;;3.85;3.03;;;29.00;84.50;;;;;;4985966;28;20216;-77
2023/08/25 18:01:04;;;;;;;5.10;2.72;;;28.90;82.60;;;;;;4985511;28;20066;-77
2023/08/25 18:03:30;;;;;;;4.87;2.87;;;28.70;83.40;;;;;;4985842;28;20031;-78
2023/08/25 18:05:56;;;;;;;4.72;2.97;;;28.60;84.80;;;;;;4986108;28;20505;-77
2023/08/25 18:08:22;;;;;;;4.68;2.97;;;28.50;85.90;;;;;;4986145;28;20048;-78
2023/08/25 18:10:48;;;;;;;5.28;3.42;;;28.30;85.40;;;;;;4984761;28;20327;-77
2023/08/25 18:13:13;;;;;;;5.30;3.50;;;28.00;86.60;;;;;;4985453;28;20034;-77
2023/08/25 18:15:39;;;;;;;5.75;3.20;;;27.90;86.70;;;;;;4985443;28;20089;-77
2023/08/25 18:18:11;;;;;;;4.93;3.08;;;27.70;87.70;;;;;;4985615;28;20030;-79
2023/08/25 18:27:32;;;;;;;5.13;3.67;;;27.10;89.70;;;;;;4985603;28;20031;-78
2023/08/25 18:30:01;;;;;;;6.70;3.40;;;26.90;90.10;;;;;;4953078;28;20376;-78
2023/08/25 18:32:26;;;;;;;7.35;3.80;;;26.80;90.30;;;;;;4982664;28;20035;-77
2023/08/25 18:34:52;;;;;;;5.13;3.30;;;26.60;90.60;;;;;;4983095;28;20031;-77
2023/08/25 18:37:18;;;;;;;6.75;4.18;;;26.50;91.40;;;;;;4984408;28;20038;-77
2023/08/25 18:42:48;;;;;;;9.25;3.80;;;26.20;91.50;;;;;;4927058;29;20072;-78
2023/08/25 18:45:22;;;;;;;5.03;3.70;;;26.10;91.60;;;;;;4971509;28;20038;-78
2023/08/25 18:48:07;;;;;;;8.32;5.35;;;25.90;92.10;;;;;;4982972;28;20034;-78
2023/08/25 18:50:35;;;;;;;7.72;4.53;;;25.90;92.20;;;;;;4985039;28;20038;-77
2023/08/25 18:53:03;;;;;;;5.57;4.20;;;25.70;92.20;;;;;;4977749;28;20027;-79
2023/08/25 18:55:29;;;;;;;6.95;4.50;;;25.60;92.60;;;;;;4975218;28;20027;-79
2023/08/25 18:57:55;;;;;;;6.10;4.00;;;25.40;92.70;;;;;;4979768;28;20069;-79
2023/08/25 19:00:41;;;;;;;6.72;3.80;;;25.30;93.00;;;;;;4958324;28;20309;-78
2023/08/25 19:03:28;;;;;;;5.15;3.90;;;25.30;93.10;;;;;;4967594;28;20042;-78
2023/08/25 19:06:06;;;;;;;7.07;3.92;;;25.10;93.40;;;;;;4985090;28;20030;-78
2023/08/25 19:08:35;;;;;;;6.18;3.72;;;25.10;93.70;;;;;;4984836;28;20054;-78
2023/08/25 19:11:03;;;;;;;5.78;3.72;;;25.00;93.80;;;;;;4985110;28;20105;-79
2023/08/25 19:13:44;;;;;;;5.72;3.75;;;24.90;94.00;;;;;;4983382;28;20046;-78
2023/08/25 19:19:09;;;;;;;6.57;4.60;;;24.80;94.10;;;;;;4944142;29;20070;-78
2023/08/25 19:21:42;;;;;;;6.95;4.45;;;24.80;94.40;;;;;;4982056;28;20061;-79
2023/08/25 19:24:08;;;;;;;7.20;4.53;;;24.70;94.30;;;;;;4984742;28;20034;-78
2023/08/25 19:26:44;;;;;;;8.50;4.20;;;24.80;94.20;;;;;;4952029;28;20122;-79
2023/08/25 19:29:13;;;;;;;7.93;4.78;;;24.70;94.30;;;;;;4967376;28;20057;-77
2023/08/25 19:32:04;;;;;;;8.00;4.30;;;24.60;94.40;;;;;;4971184;28;20029;-77
2023/08/25 19:34:49;;;;;;;5.30;4.10;;;24.50;94.60;;;;;;4957869;29;20034;-79
2023/08/25 19:37:18;;;;;;;7.47;4.50;;;24.30;94.80;;;;;;4947900;29;20085;-78
2023/08/25 19:40:14;;;;;;;7.88;4.40;;;24.30;94.90;;;;;;4974495;28;20039;-78
2023/08/25 19:42:52;;;;;;;8.38;4.80;;;24.40;94.90;;;;;;4963977;29;20042;-78
2023/08/25 19:45:17;;;;;;;8.63;4.68;;;24.50;95.10;;;;;;4967232;29;20031;-77
2023/08/25 19:47:43;;;;;;;9.10;4.60;;;24.40;95.10;;;;;;4965436;29;20031;-77
2023/08/25 19:50:10;;;;;;;7.85;4.57;;;24.30;95.30;;;;;;4964909;29;20114;-77
2023/08/25 19:52:36;;;;;;;7.07;4.30;;;24.30;95.20;;;;;;4964569;29;20043;-79
2023/08/25 19:55:03;;;;;;;7.28;4.70;;;24.40;95.20;;;;;;4965051;28;20046;-77
2023/08/25 19:57:29;;;;;;;6.65;4.22;;;24.30;94.90;;;;;;4964731;29;20073;-76
2023/08/25 19:59:54;;;;;;;6.55;4.35;;;24.40;95.10;;;;;;4963133;29;20039;-78
2023/08/25 20:02:21;;;;;;;10.18;4.90;;;24.40;95.40;;;;;;4945194;29;20035;-77
2023/08/25 20:04:49;;;;;;;7.90;5.68;;;24.40;95.60;;;;;;4945498;29;20027;-78
2023/08/25 20:07:17;;;;;;;7.53;4.70;;;24.30;96.30;;;;;;4943910;29;20099;-75
2023/08/25 20:09:44;;;;;;;7.60;5.07;;;24.30;96.60;;;;;;4945203;29;20043;-77
2023/08/25 20:12:10;;;;;;;5.95;4.47;;;24.20;97.20;;;;;;4944500;29;20020;-77
2023/08/25 20:14:36;;;;;;;8.00;4.93;;;24.20;97.40;;;;;;4960016;29;20043;-77
2023/08/25 20:17:03;;;;;;;6.55;5.05;;;24.10;97.90;;;;;;4945705;29;20050;-77
2023/08/25 20:19:32;;;;;;;6.78;4.93;;;23.90;98.00;;;;;;4943682;29;20429;-78
2023/08/25 20:21:58;;;;;;;7.10;4.97;;;23.80;98.30;;;;;;4945525;29;20031;-77
2023/08/25 20:24:23;;;;;;;10.05;5.20;;;23.80;98.60;;;;;;4944206;29;20044;-76
2023/08/25 20:26:49;;;;;;;9.98;5.78;;;23.80;98.70;;;;;;4945236;29;20106;-77
2023/08/25 20:29:15;;;;;;;9.68;5.85;;;23.70;99.30;;;;;;4945284;29;20059;-77
2023/08/25 20:31:41;;;;;;;7.88;5.13;;;23.70;99.80;;;;;;4944549;29;20096;-77
2023/08/25 20:34:08;;;;;;;7.65;5.10;;;23.70;99.90;;;;;;4945505;29;20031;-77
2023/08/25 20:36:33;;;;;;;7.70;5.90;;;23.70;99.90;;;;;;4948077;29;20039;-76
2023/08/25 20:38:59;;;;;;;10.07;7.30;;;23.60;99.90;;;;;;4948945;29;20389;-78
2023/08/25 20:41:25;;;;;;;9.45;5.88;;;23.60;99.90;;;;;;4963628;28;20035;-76
2023/08/25 20:43:51;;;;;;;9.98;6.13;;;23.60;99.90;;;;;;4987113;28;20138;-76
2023/08/25 20:46:18;;;;;;;8.15;5.50;;;23.60;99.90;;;;;;4970096;28;20321;-78
2023/08/25 20:48:49;;;;;;;9.77;5.65;;;23.60;99.90;;;;;;4970071;28;20070;-75
2023/08/25 20:51:16;;;;;;;8.25;5.60;;;23.60;99.90;;;;;;4970392;28;20035;-77